createdAt,value
2019-04-22T00:01:58.112Z,26.70
2019-04-22T00:04:40.205Z,27.93
2019-04-22T00:07:41.984Z,28.17
2019-04-22T00:10:19.838Z,25.97
2019-04-22T00:12:51.581Z,26.20
2019-04-22T00:15:32.538Z,26.60
2019-04-22T00:18:16.547Z,27.40
2019-04-22T00:20:58.422Z,27.63
2019-04-22T00:23:54.922Z,28.23
2019-04-22T00:26:23.686Z,26.37
2019-04-22T00:29:05.193Z,25.80
2019-04-22T00:31:49.523Z,26.93
2019-04-22T00:34:16.756Z,26.40
2019-04-22T00:36:52.642Z,25.17
2019-04-22T00:39:16.394Z,25.03
2019-04-22T00:41:50.773Z,24.43
2019-04-22T00:44:26.045Z,24.97
2019-04-22T00:46:54.147Z,25.37
2019-04-22T00:52:28.193Z,26.43
2019-04-22T00:54:50.682Z,26.00
2019-04-22T00:57:15.614Z,24.90
2019-04-22T00:59:50.803Z,25.87
2019-04-22T01:02:24.555Z,24.50
2019-04-22T01:04:56.063Z,25.33
2019-04-22T01:07:17.585Z,25.63
2019-04-22T01:09:51.769Z,24.90
2019-04-22T01:12:20.998Z,24.83
2019-04-22T01:14:52.046Z,25.60
2019-04-22T01:17:40.181Z,26.13
2019-04-22T01:20:29.440Z,26.33
2019-04-22T01:23:14.232Z,26.27
2019-04-22T01:25:41.123Z,24.13
2019-04-22T01:28:24.025Z,25.60
2019-04-22T01:30:53.372Z,26.57
2019-04-22T01:33:23.809Z,26.70
2019-04-22T01:36:08.029Z,26.93
2019-04-22T01:38:38.436Z,29.13
2019-04-22T01:41:42.399Z,29.50
2019-04-22T01:44:16.467Z,31.40
2019-04-22T01:46:39.599Z,29.00
2019-04-22T01:49:27.596Z,28.13
2019-04-22T01:52:02.942Z,28.90
2019-04-22T01:54:29.903Z,28.93
2019-04-22T01:57:10.931Z,29.40
2019-04-22T01:59:47.425Z,29.13
2019-04-22T02:02:30.527Z,27.13
2019-04-22T02:04:59.615Z,27.20
2019-04-22T02:07:30.507Z,28.43
2019-04-22T02:10:20.083Z,28.53
2019-04-22T02:12:33.720Z,26.97
2019-04-22T02:15:07.892Z,27.30
2019-04-22T02:17:37.255Z,29.20
2019-04-22T02:20:05.142Z,29.40
2019-04-22T02:22:50.178Z,28.23
2019-04-22T02:25:32.347Z,28.07
2019-04-22T02:28:05.035Z,29.87
2019-04-22T02:33:55.684Z,29.17
2019-04-22T02:43:47.435Z,28.73
2019-04-22T02:51:40.277Z,29.73
2019-04-22T02:57:35.271Z,28.40
2019-04-22T03:00:07.433Z,28.13
2019-04-22T03:07:31.769Z,29.53
2019-04-22T03:10:35.492Z,30.60
2019-04-22T03:13:02.148Z,29.97
2019-04-22T03:15:34.959Z,28.77
2019-04-22T03:20:37.401Z,30.80
2019-04-22T03:23:16.833Z,31.10
2019-04-22T03:28:16.515Z,30.40
2019-04-22T03:34:15.374Z,30.10
2019-04-22T03:36:05.040Z,30.93
2019-04-22T03:38:55.647Z,30.67
2019-04-22T03:41:19.424Z,31.57
2019-04-22T03:43:45.826Z,32.53
2019-04-22T03:46:01.599Z,31.23
2019-04-22T03:48:55.819Z,31.53
2019-04-22T03:51:16.134Z,31.53
2019-04-22T03:53:38.527Z,32.00
2019-04-22T03:59:12.004Z,32.03
2019-04-22T04:01:46.428Z,31.43
2019-04-22T04:04:09.139Z,33.17
2019-04-22T04:06:47.095Z,33.07
2019-04-22T04:09:27.053Z,32.37
2019-04-22T04:11:59.209Z,33.57
2019-04-22T04:14:26.331Z,34.50
2019-04-22T04:19:38.759Z,34.03
2019-04-22T04:22:00.714Z,33.83
2019-04-22T04:30:02.770Z,34.83
2019-04-22T04:43:08.273Z,35.93
2019-04-22T04:53:19.379Z,38.53
2019-04-22T04:55:33.283Z,37.87
2019-04-22T04:58:25.655Z,39.27
2019-04-22T05:03:23.372Z,35.97
2019-04-22T05:05:39.628Z,39.37
2019-04-22T05:13:54.327Z,38.03
2019-04-22T05:19:05.508Z,39.87
2019-04-22T05:21:50.722Z,39.43
2019-04-22T05:24:26.060Z,40.03
2019-04-22T05:26:48.859Z,38.73
2019-04-22T05:29:22.158Z,38.70
2019-04-22T05:32:31.261Z,38.77
2019-04-22T05:34:48.724Z,38.87
2019-04-22T05:37:15.607Z,40.57
2019-04-22T05:39:45.162Z,40.07
2019-04-22T05:42:28.463Z,38.80
2019-04-22T05:47:54.802Z,39.20
2019-04-22T05:50:20.417Z,40.23
2019-04-22T05:52:51.119Z,39.87
2019-04-22T05:58:18.433Z,40.27
2019-04-22T06:01:13.173Z,40.53
2019-04-22T06:03:15.415Z,40.03
2019-04-22T06:05:47.870Z,39.67
2019-04-22T06:08:22.021Z,41.40
2019-04-22T06:11:11.715Z,39.67
2019-04-22T06:13:50.678Z,40.77
2019-04-22T06:16:25.891Z,40.37
2019-04-22T06:19:02.824Z,41.17
2019-04-22T06:21:40.185Z,40.53
2019-04-22T06:24:16.731Z,40.33
2019-04-22T06:29:45.397Z,41.73
2019-04-22T06:35:18.408Z,42.27
2019-04-22T06:38:22.799Z,41.90
2019-04-22T06:40:34.674Z,42.90
2019-04-22T06:43:23.610Z,44.27
2019-04-22T06:45:57.721Z,43.90
2019-04-22T06:48:45.996Z,42.40
2019-04-22T06:51:19.815Z,42.40
2019-04-22T06:54:07.283Z,41.77
2019-04-22T06:56:48.509Z,42.53
2019-04-22T06:59:18.935Z,41.80
2019-04-22T07:01:56.250Z,44.27
2019-04-22T07:04:58.287Z,45.20
2019-04-22T07:07:23.993Z,43.47
2019-04-22T07:10:11.806Z,44.60
2019-04-22T07:15:12.718Z,41.70
2019-04-22T07:17:42.406Z,43.33
2019-04-22T07:23:07.919Z,40.93
2019-04-22T07:25:36.066Z,42.83
2019-04-22T07:28:12.245Z,40.63
2019-04-22T07:30:41.028Z,43.27
2019-04-22T07:38:22.910Z,43.70
2019-04-22T07:40:51.985Z,41.77
2019-04-22T07:43:20.174Z,40.93
2019-04-22T07:45:54.963Z,38.40
2019-04-22T07:48:35.745Z,42.33
2019-04-22T07:53:32.167Z,41.40
2019-04-22T07:56:01.927Z,42.23
2019-04-22T07:58:29.254Z,41.30
2019-04-22T08:01:02.029Z,40.97
2019-04-22T08:03:37.684Z,38.67
2019-04-22T08:06:17.531Z,39.13
2019-04-22T08:08:33.777Z,39.37
2019-04-22T08:11:08.127Z,39.23
2019-04-22T08:13:34.175Z,40.17
2019-04-22T08:16:02.787Z,38.43
2019-04-22T08:18:39.377Z,39.00
2019-04-22T08:21:07.535Z,38.27
2019-04-22T08:26:04.914Z,38.23
2019-04-22T08:28:46.870Z,41.73
2019-04-22T08:31:18.766Z,39.10
2019-04-22T08:33:44.466Z,38.73
2019-04-22T08:38:48.741Z,38.40
2019-04-22T08:41:28.454Z,36.70
2019-04-22T08:43:59.341Z,36.77
2019-04-22T08:46:29.786Z,37.43
2019-04-22T08:48:55.709Z,37.47
2019-04-22T08:51:25.318Z,37.40
2019-04-22T08:54:05.002Z,35.53
2019-04-22T08:56:35.094Z,35.73
2019-04-22T08:59:12.430Z,36.37
2019-04-22T09:04:04.044Z,36.60
2019-04-22T09:09:06.216Z,36.13
2019-04-22T09:11:44.927Z,35.47
2019-04-22T09:14:14.093Z,33.10
2019-04-22T09:16:42.677Z,33.87
2019-04-22T09:19:27.347Z,34.67
2019-04-22T09:21:38.836Z,34.53
2019-04-22T09:24:10.648Z,32.43
2019-04-22T09:26:41.792Z,32.53
2019-04-22T09:31:47.516Z,33.90
2019-04-22T09:34:14.057Z,33.13
2019-04-22T09:36:54.497Z,33.17
2019-04-22T09:39:17.423Z,33.60
2019-04-22T09:41:51.364Z,32.97
2019-04-22T09:44:16.310Z,32.67
2019-04-22T09:46:52.366Z,30.93
2019-04-22T09:51:52.227Z,32.90
2019-04-22T09:54:29.666Z,31.03
2019-04-22T09:56:56.463Z,29.60
2019-04-22T09:59:32.886Z,30.07
2019-04-22T10:02:16.033Z,29.30
2019-04-22T10:04:33.023Z,32.13
2019-04-22T10:07:01.034Z,31.20
2019-04-22T10:12:30.492Z,28.33
2019-04-22T10:14:55.926Z,27.50
2019-04-22T10:17:26.189Z,27.87
2019-04-22T10:20:01.048Z,28.60
2019-04-22T10:22:35.621Z,26.60
2019-04-22T10:24:57.044Z,28.37
2019-04-22T10:27:25.897Z,27.93
2019-04-22T10:30:33.329Z,26.47
2019-04-22T10:32:29.204Z,27.07
2019-04-22T10:35:09.237Z,26.23
2019-04-22T10:37:36.588Z,25.37
2019-04-22T10:40:09.876Z,24.20
2019-04-22T10:42:42.901Z,25.83
2019-04-22T10:45:14.460Z,26.17
2019-04-22T10:47:43.840Z,24.77
2019-04-22T10:50:14.434Z,24.90
2019-04-22T10:52:43.622Z,25.57
2019-04-22T10:55:13.824Z,26.17
2019-04-22T10:57:44.237Z,25.87
2019-04-22T11:00:15.687Z,23.67
2019-04-22T11:02:45.760Z,25.40
2019-04-22T11:05:16.489Z,23.13
2019-04-22T11:07:51.843Z,24.77
2019-04-22T11:10:34.590Z,24.50
2019-04-22T11:12:47.441Z,22.17
2019-04-22T11:15:18.239Z,22.77
2019-04-22T11:17:49.365Z,22.93
2019-04-22T11:20:19.853Z,22.30
2019-04-22T11:22:49.079Z,22.43
2019-04-22T11:25:18.378Z,22.30
2019-04-22T11:27:47.449Z,22.57
2019-04-22T11:30:36.697Z,22.20
2019-04-22T11:33:06.774Z,21.30
2019-04-22T11:35:37.444Z,19.60
2019-04-22T11:38:26.808Z,21.00
2019-04-22T11:41:16.721Z,20.03
2019-04-22T11:43:47.313Z,18.50
2019-04-22T11:46:17.624Z,19.10
2019-04-22T11:48:47.715Z,18.70
2019-04-22T11:51:18.267Z,18.57
2019-04-22T11:53:49.016Z,17.90
2019-04-22T11:56:18.849Z,18.27
2019-04-22T11:59:08.728Z,17.40
2019-04-22T12:01:39.015Z,17.57
2019-04-22T12:04:09.611Z,18.37
2019-04-22T12:06:40.111Z,17.97
2019-04-22T12:09:12.468Z,17.90
2019-04-22T12:11:41.688Z,18.30
2019-04-22T12:14:11.785Z,19.03
2019-04-22T12:17:01.480Z,17.80
2019-04-22T12:19:31.787Z,18.87
2019-04-22T12:22:00.869Z,16.87
2019-04-22T12:24:30.291Z,17.10
2019-04-22T12:27:00.232Z,18.17
2019-04-22T12:29:48.987Z,16.87
2019-04-22T12:32:18.133Z,16.40
2019-04-22T12:34:47.309Z,16.43
2019-04-22T12:37:26.049Z,15.07
2019-04-22T12:39:48.111Z,13.80
2019-04-22T12:42:19.593Z,14.13
2019-04-22T12:44:49.623Z,13.33
2019-04-22T12:47:20.057Z,13.83
2019-04-22T12:49:57.192Z,12.43
2019-04-22T12:52:27.632Z,13.63
2019-04-22T12:55:10.013Z,13.23
2019-04-22T12:57:46.448Z,12.00
2019-04-22T13:00:17.664Z,13.03
2019-04-22T13:02:47.325Z,12.53
2019-04-22T13:05:18.556Z,10.93
2019-04-22T13:07:47.633Z,12.13
2019-04-22T13:10:17.761Z,12.10
2019-04-22T13:12:47.107Z,10.83
2019-04-22T13:15:18.017Z,10.73
2019-04-22T13:17:59.475Z,10.10
2019-04-22T13:20:20.179Z,10.23
2019-04-22T13:22:50.498Z,10.17
2019-04-22T13:25:23.327Z,9.20
2019-04-22T13:27:51.244Z,9.30
2019-04-22T13:30:20.995Z,11.10
2019-04-22T13:32:50.049Z,9.40
2019-04-22T13:35:20.243Z,8.57
2019-04-22T13:37:51.007Z,8.10
2019-04-22T13:40:21.157Z,8.60
2019-04-22T13:42:51.165Z,8.80
2019-04-22T13:45:20.284Z,7.67
2019-04-22T13:48:26.281Z,8.03
2019-04-22T13:53:44.980Z,8.93
2019-04-22T13:56:01.724Z,9.60
2019-04-22T13:58:44.915Z,7.43
2019-04-22T14:01:06.933Z,7.17
2019-04-22T14:04:02.655Z,8.55
2019-04-22T14:06:31.907Z,6.70
2019-04-22T14:09:01.193Z,7.95
2019-04-22T14:11:37.642Z,7.83
2019-04-22T14:14:01.003Z,7.12
2019-04-22T14:16:31.140Z,8.73
2019-04-22T14:19:00.377Z,7.77
2019-04-22T14:21:30.564Z,8.37
2019-04-22T14:24:00.376Z,7.77
2019-04-22T14:27:03.171Z,8.57
2019-04-22T14:29:19.687Z,7.87
2019-04-22T14:32:02.102Z,7.70
2019-04-22T14:34:20.821Z,7.17
2019-04-22T14:36:51.124Z,7.83
2019-04-22T14:39:20.281Z,9.33
2019-04-22T14:44:42.423Z,7.67
2019-04-22T14:47:15.910Z,7.70
2019-04-22T14:49:43.513Z,7.53
2019-04-22T14:52:15.140Z,7.47
2019-04-22T14:54:37.561Z,6.87
2019-04-22T14:56:54.233Z,9.87
2019-04-22T14:59:23.281Z,9.00
2019-04-22T15:01:53.942Z,7.30
2019-04-22T15:04:23.493Z,6.83
2019-04-22T15:06:52.868Z,6.73
2019-04-22T15:09:21.924Z,6.57
2019-04-22T15:12:03.174Z,6.47
2019-04-22T15:14:23.262Z,6.93
2019-04-22T15:17:13.017Z,6.90
2019-04-22T15:20:01.483Z,5.67
2019-04-22T15:22:30.928Z,5.50
2019-04-22T15:25:00.735Z,7.90
2019-04-22T15:27:31.128Z,6.77
2019-04-22T15:30:01.329Z,8.60
2019-04-22T15:32:31.659Z,6.22
2019-04-22T15:35:19.874Z,5.97
2019-04-22T15:37:51.112Z,6.17
2019-04-22T15:40:20.657Z,5.03
2019-04-22T15:42:50.747Z,6.72
2019-04-22T15:45:20.549Z,6.85
2019-04-22T15:47:52.247Z,7.22
2019-04-22T15:50:22.488Z,6.00
2019-04-22T15:52:54.985Z,6.53
2019-04-22T15:55:22.894Z,6.05
2019-04-22T15:57:52.085Z,5.20
2019-04-22T16:00:35.546Z,6.30
2019-04-22T16:02:52.261Z,5.70
2019-04-22T16:05:22.511Z,5.42
2019-04-22T16:07:53.006Z,7.95
2019-04-22T16:10:42.097Z,6.75
2019-04-22T16:13:18.262Z,6.53
2019-04-22T16:15:42.731Z,7.95
2019-04-22T16:18:14.607Z,7.10
2019-04-22T16:20:43.906Z,6.37
2019-04-22T16:23:32.319Z,7.40
2019-04-22T16:26:26.341Z,6.35
2019-04-22T16:28:57.620Z,7.17
2019-04-22T16:31:27.106Z,6.30
2019-04-22T16:33:56.375Z,7.03
2019-04-22T16:36:26.806Z,5.80
2019-04-22T16:38:57.076Z,7.20
2019-04-22T16:41:26.478Z,6.03
2019-04-22T16:43:56.321Z,6.17
2019-04-22T16:46:25.622Z,6.07
2019-04-22T16:48:55.878Z,7.03
2019-04-22T16:51:25.106Z,6.73
2019-04-22T16:53:54.179Z,6.77
2019-04-22T16:56:24.656Z,6.60
2019-04-22T16:58:54.806Z,6.10
2019-04-22T17:02:01.277Z,6.43
2019-04-22T17:04:48.602Z,6.53
2019-04-22T17:07:20.393Z,6.10
2019-04-22T17:09:49.993Z,8.83
2019-04-22T17:12:19.590Z,6.10
2019-04-22T17:14:54.774Z,5.97
2019-04-22T17:17:20.205Z,8.07
2019-04-22T17:19:49.442Z,6.13
2019-04-22T17:22:19.654Z,5.90
2019-04-22T17:24:49.925Z,7.23
2019-04-22T17:27:20.189Z,6.57
2019-04-22T17:29:50.593Z,5.80
2019-04-22T17:32:22.716Z,6.77
2019-04-22T17:34:51.710Z,6.00
2019-04-22T17:37:26.602Z,7.80
2019-04-22T17:40:13.291Z,6.73
2019-04-22T17:42:42.352Z,7.33
2019-04-22T17:45:22.191Z,6.37
2019-04-22T17:48:35.687Z,5.10
2019-04-22T17:51:16.144Z,6.87
2019-04-22T17:53:46.926Z,6.00
2019-04-22T17:56:10.258Z,5.60
2019-04-22T17:58:45.095Z,5.70
2019-04-22T18:01:16.456Z,5.90
2019-04-22T18:03:32.887Z,4.93
2019-04-22T18:06:00.467Z,6.07
2019-04-22T18:08:45.263Z,5.83
2019-04-22T18:11:24.314Z,8.40
2019-04-22T18:13:51.553Z,4.93
2019-04-22T18:16:18.224Z,5.70
2019-04-22T18:18:52.896Z,6.00
2019-04-22T18:21:38.026Z,5.87
2019-04-22T18:24:01.374Z,6.93
2019-04-22T18:26:40.208Z,5.50
2019-04-22T18:29:11.571Z,5.33
2019-04-22T18:31:37.193Z,6.73
2019-04-22T18:34:06.874Z,6.00
2019-04-22T18:36:40.440Z,6.03
2019-04-22T18:41:45.001Z,7.13
2019-04-22T18:44:17.986Z,5.20
2019-04-22T18:46:50.398Z,7.53
2019-04-22T18:49:15.022Z,7.97
2019-04-22T18:51:51.402Z,5.10
2019-04-22T18:54:45.777Z,5.30
2019-04-22T18:57:15.680Z,6.27
2019-04-22T18:59:34.581Z,5.67
2019-04-22T19:02:07.772Z,5.27
2019-04-22T19:04:44.407Z,7.13
2019-04-22T19:07:51.189Z,7.40
2019-04-22T19:10:23.608Z,6.50
2019-04-22T19:13:02.033Z,7.57
2019-04-22T19:15:18.941Z,6.50
2019-04-22T19:17:55.092Z,6.00
2019-04-22T19:20:24.086Z,5.50
2019-04-22T19:22:52.330Z,6.23
2019-04-22T19:25:15.365Z,5.63
2019-04-22T19:27:48.315Z,6.07
2019-04-22T19:30:27.451Z,6.03
2019-04-22T19:32:51.170Z,6.63
2019-04-22T19:35:17.148Z,8.70
2019-04-22T19:37:45.114Z,6.90
2019-04-22T19:40:30.313Z,5.73
2019-04-22T19:43:15.417Z,8.23
2019-04-22T19:45:44.356Z,8.73
2019-04-22T19:48:27.209Z,7.00
2019-04-22T19:51:12.837Z,6.40
2019-04-22T19:53:43.894Z,7.30
2019-04-22T19:56:06.136Z,6.57
2019-04-22T19:58:37.360Z,6.20
2019-04-22T20:01:32.151Z,9.20
2019-04-22T20:06:53.417Z,9.00
2019-04-22T20:09:33.401Z,7.90
2019-04-22T20:11:57.545Z,7.90
2019-04-22T20:14:28.073Z,9.63
2019-04-22T20:16:53.378Z,8.80
2019-04-22T20:19:50.170Z,8.30
2019-04-22T20:22:17.555Z,6.47
2019-04-22T20:24:39.377Z,8.73
2019-04-22T20:27:18.729Z,6.60
2019-04-22T20:29:51.728Z,9.23
2019-04-22T20:32:23.467Z,6.27
2019-04-22T20:34:59.080Z,6.70
2019-04-22T20:37:29.481Z,9.33
2019-04-22T20:39:52.884Z,8.23
2019-04-22T20:42:38.724Z,9.73
2019-04-22T20:45:01.542Z,9.37
2019-04-22T20:47:21.692Z,10.57
2019-04-22T20:50:02.171Z,6.87
2019-04-22T20:52:36.818Z,7.37
2019-04-22T20:54:55.909Z,6.77
2019-04-22T20:57:32.045Z,6.37
2019-04-22T20:59:55.869Z,6.20
2019-04-22T21:02:23.803Z,8.47
2019-04-22T21:04:49.032Z,8.27
2019-04-22T21:07:26.601Z,11.30
2019-04-22T21:09:59.513Z,5.10
2019-04-22T21:12:22.395Z,6.33
2019-04-22T21:15:08.101Z,7.60
2019-04-22T21:17:34.750Z,8.50
2019-04-22T21:20:14.268Z,5.80
2019-04-22T21:22:46.306Z,7.60
2019-04-22T21:25:11.275Z,8.73
2019-04-22T21:28:05.039Z,7.27
2019-04-22T21:30:14.414Z,7.53
2019-04-22T21:32:47.402Z,9.10
2019-04-22T21:35:29.193Z,7.13
2019-04-22T21:37:57.088Z,8.83
2019-04-22T21:40:26.135Z,6.37
2019-04-22T21:42:53.113Z,6.37
2019-04-22T21:45:14.966Z,6.00
2019-04-22T21:47:57.112Z,6.70
2019-04-22T21:53:16.486Z,6.40
2019-04-22T21:55:50.826Z,5.70
2019-04-22T21:58:31.274Z,5.23
2019-04-22T22:01:33.596Z,4.93
2019-04-22T22:03:57.265Z,6.87
2019-04-22T22:06:19.033Z,4.07
2019-04-22T22:08:58.728Z,6.93
2019-04-22T22:11:24.212Z,6.37
2019-04-22T22:13:50.170Z,8.43
2019-04-22T22:16:19.209Z,5.87
2019-04-22T22:19:00.904Z,3.97
2019-04-22T22:23:59.333Z,6.93
2019-04-22T22:26:26.534Z,5.20
2019-04-22T22:29:05.048Z,4.77
2019-04-22T22:31:36.653Z,4.43
2019-04-22T22:34:25.007Z,8.70
2019-04-22T22:36:48.113Z,4.53
2019-04-22T22:39:17.395Z,6.10
2019-04-22T22:41:32.204Z,4.03
2019-04-22T22:44:10.286Z,4.70
2019-04-22T22:46:44.272Z,5.20
2019-04-22T22:49:28.775Z,6.93
2019-04-22T22:52:10.209Z,4.63
2019-04-22T22:54:33.079Z,4.73
2019-04-22T22:59:31.195Z,9.23
2019-04-22T23:01:56.869Z,4.33
2019-04-22T23:04:34.204Z,3.93
2019-04-22T23:07:06.917Z,5.43
2019-04-22T23:09:30.694Z,7.80
2019-04-22T23:14:35.002Z,4.13
2019-04-22T23:16:51.414Z,5.23
2019-04-22T23:19:13.683Z,4.10
2019-04-22T23:21:46.814Z,4.03
2019-04-22T23:24:47.007Z,4.57
2019-04-22T23:27:21.135Z,8.90
2019-04-22T23:30:10.977Z,4.83
2019-04-22T23:32:42.646Z,5.20
2019-04-22T23:35:33.764Z,4.77
2019-04-22T23:38:08.346Z,4.57
2019-04-22T23:40:38.490Z,3.77
2019-04-22T23:43:15.844Z,3.67
2019-04-22T23:45:46.665Z,6.37
2019-04-22T23:48:08.303Z,3.50
2019-04-22T23:50:45.967Z,6.67
2019-04-22T23:54:04.373Z,3.70
2019-04-22T23:56:06.126Z,4.10
2019-04-22T23:58:58.495Z,5.60
